Time;durP1;ratioP1;P1;durP2;ratioP2;P2;SDS_P1;SDS_P2;PMS_P1;PMS_P2;Temp;Humidity;BMP_temperature;BMP_pressure;BME280_temperature;BME280_humidity;BME280_pressure;Samples;Min_cycle;Max_cycle;Signal;HPM_P1;HPM_P2
2022/04/06 00:00:26;;;;;;;;;;;10.90;99.90;;;;;;5133197;27;19926;-63
2022/04/06 00:02:53;;;;;;;;;;;11.00;99.90;;;;;;5120466;27;19911;-63
2022/04/06 00:05:18;;;;;;;;;;;11.00;99.90;;;;;;5132253;27;19912;-63
2022/04/06 00:07:44;;;;;;;;;;;11.00;99.90;;;;;;5117347;27;19934;-62
2022/04/06 00:10:10;;;;;;;;;;;11.00;99.90;;;;;;5135576;27;19971;-62
2022/04/06 00:12:37;;;;;;;;;;;11.00;99.90;;;;;;5115804;27;19963;-62
2022/04/06 00:15:04;;;;;;;;;;;11.00;99.90;;;;;;5134841;27;19911;-63
2022/04/06 00:17:30;;;;;;;;;;;11.00;99.90;;;;;;5108957;27;20819;-62
2022/04/06 00:19:55;;;;;;;;;;;10.90;99.90;;;;;;5139899;27;19919;-63
2022/04/06 00:22:21;;;;;;;;;;;10.90;99.90;;;;;;5131457;27;19937;-63
2022/04/06 00:24:47;;;;;;;;;;;11.00;99.90;;;;;;5131413;27;19939;-62
2022/04/06 00:27:13;;;;;;;;;;;10.90;99.90;;;;;;5126117;27;20329;-63
2022/04/06 00:29:39;;;;;;;;;;;10.90;99.90;;;;;;5117038;27;19916;-63
2022/04/06 00:32:04;;;;;;;;;;;10.90;99.90;;;;;;5136145;27;20304;-62
2022/04/06 00:37:14;;;;;;;;;;;10.90;99.90;;;;;;5123827;27;19923;-61
2022/04/06 00:39:40;;;;;;;;;;;10.80;99.90;;;;;;5129848;28;19915;-65
2022/04/06 00:42:06;;;;;;;;;;;10.70;99.90;;;;;;5128558;27;19931;-64
2022/04/06 00:44:34;;;;;;;;;;;10.70;99.90;;;;;;5135078;27;19929;-64
2022/04/06 00:47:00;;;;;;;;;;;10.70;99.90;;;;;;5130237;27;19911;-63
2022/04/06 00:49:26;;;;;;;;;;;10.70;99.90;;;;;;5137215;27;19915;-62
2022/04/06 00:51:52;;;;;;;;;;;10.70;99.90;;;;;;5134558;27;20010;-63
2022/04/06 00:54:19;;;;;;;;;;;10.80;99.90;;;;;;5132162;28;19912;-64
2022/04/06 00:56:46;;;;;;;;;;;10.70;99.90;;;;;;5128629;28;19918;-63
2022/04/06 00:59:11;;;;;;;;;;;10.70;99.90;;;;;;5128404;28;19923;-64
2022/04/06 01:01:37;;;;;;;;;;;10.70;99.90;;;;;;5132881;27;19970;-63
2022/04/06 01:04:04;;;;;;;;;;;10.70;99.90;;;;;;5133749;27;19933;-63
2022/04/06 01:06:29;;;;;;;;;;;10.70;99.90;;;;;;5138181;27;19975;-63
2022/04/06 01:08:55;;;;;;;;;;;10.70;99.90;;;;;;5137430;27;19908;-62
2022/04/06 01:11:20;;;;;;;;;;;10.70;99.90;;;;;;5138291;27;19922;-63
2022/04/06 01:13:46;;;;;;;;;;;10.70;99.90;;;;;;5115643;28;19918;-63
2022/04/06 01:16:15;;;;;;;;;;;10.70;99.90;;;;;;5110365;28;19911;-64
2022/04/06 01:18:41;;;;;;;;;;;10.60;99.90;;;;;;5131455;28;19959;-69
2022/04/06 01:21:07;;;;;;;;;;;10.50;99.90;;;;;;5122981;28;19912;-62
2022/04/06 01:23:33;;;;;;;;;;;10.60;99.90;;;;;;5138309;27;19911;-62
2022/04/06 01:25:58;;;;;;;;;;;10.60;99.90;;;;;;5119444;28;20367;-62
2022/04/06 01:28:24;;;;;;;;;;;10.70;99.90;;;;;;5135277;27;19923;-64
2022/04/06 01:30:50;;;;;;;;;;;10.70;99.90;;;;;;5132773;28;19912;-64
2022/04/06 01:33:16;;;;;;;;;;;10.70;99.90;;;;;;5134823;28;19911;-63
2022/04/06 01:35:42;;;;;;;;;;;10.70;99.90;;;;;;5128214;27;20512;-62
2022/04/06 01:38:08;;;;;;;;;;;10.70;99.90;;;;;;5116570;27;19916;-66
2022/04/06 01:40:34;;;;;;;;;;;10.80;99.90;;;;;;5134664;27;19920;-63
2022/04/06 01:42:59;;;;;;;;;;;10.90;99.90;;;;;;5134854;27;19968;-62
2022/04/06 01:45:25;;;;;;;;;;;10.80;99.90;;;;;;5134036;27;19959;-62
2022/04/06 01:47:50;;;;;;;;;;;10.80;99.90;;;;;;5139697;27;19935;-62
2022/04/06 01:53:02;;;;;;;;;;;10.80;99.90;;;;;;5135033;27;19918;-62
2022/04/06 01:55:28;;;;;;;;;;;10.80;99.90;;;;;;5135323;27;19970;-62
2022/04/06 01:57:53;;;;;;;;;;;10.80;99.90;;;;;;5136493;27;19962;-62
2022/04/06 02:00:19;;;;;;;;;;;10.80;99.90;;;;;;5132375;27;19916;-62
2022/04/06 02:02:49;;;;;;;;;;;10.80;99.90;;;;;;5133165;27;20409;-62
2022/04/06 02:05:15;;;;;;;;;;;10.90;99.90;;;;;;5136203;27;19918;-62
2022/04/06 02:07:42;;;;;;;;;;;10.80;99.90;;;;;;5136715;27;19923;-63
2022/04/06 02:10:08;;;;;;;;;;;10.90;99.90;;;;;;5122263;27;19961;-62
2022/04/06 02:12:34;;;;;;;;;;;10.80;99.90;;;;;;5137133;27;19912;-65
2022/04/06 02:15:00;;;;;;;;;;;10.70;99.90;;;;;;5136804;27;19919;-63
2022/04/06 02:17:27;;;;;;;;;;;10.70;99.90;;;;;;5120877;27;19955;-63
2022/04/06 02:19:52;;;;;;;;;;;10.60;99.90;;;;;;5130904;27;19924;-62
2022/04/06 02:22:19;;;;;;;;;;;10.60;99.90;;;;;;5134867;27;19912;-63
2022/04/06 02:24:45;;;;;;;;;;;10.60;99.90;;;;;;5139875;27;19912;-62
2022/04/06 02:27:10;;;;;;;;;;;10.60;99.90;;;;;;5114522;28;20056;-62
2022/04/06 02:29:37;;;;;;;;;;;10.50;99.90;;;;;;5138570;27;19912;-63
2022/04/06 02:32:03;;;;;;;;;;;10.50;99.90;;;;;;5136447;27;19946;-64
2022/04/06 02:34:28;;;;;;;;;;;10.50;99.90;;;;;;5136625;27;19980;-63
2022/04/06 02:36:54;;;;;;;;;;;10.40;99.90;;;;;;5134770;27;19919;-62
2022/04/06 02:39:20;;;;;;;;;;;10.40;99.90;;;;;;5132645;27;20440;-63
2022/04/06 02:41:45;;;;;;;;;;;10.40;99.90;;;;;;5142625;27;19967;-63
2022/04/06 02:44:11;;;;;;;;;;;10.30;99.90;;;;;;5137425;27;19912;-62
2022/04/06 02:46:37;;;;;;;;;;;10.40;99.90;;;;;;5136857;27;20358;-63
2022/04/06 02:49:02;;;;;;;;;;;10.40;99.90;;;;;;5133323;27;19912;-64
2022/04/06 02:51:28;;;;;;;;;;;10.40;99.90;;;;;;5130847;27;20353;-64
2022/04/06 02:53:53;;;;;;;;;;;10.40;99.90;;;;;;5129447;27;19950;-62
2022/04/06 02:56:19;;;;;;;;;;;10.50;99.90;;;;;;5133149;27;19911;-63
2022/04/06 02:58:44;;;;;;;;;;;10.40;99.90;;;;;;5139611;27;19915;-64
2022/04/06 03:01:10;;;;;;;;;;;10.50;99.90;;;;;;5139698;27;19931;-63
2022/04/06 03:03:36;;;;;;;;;;;10.50;99.90;;;;;;5142704;27;19912;-62
2022/04/06 03:06:01;;;;;;;;;;;10.60;99.90;;;;;;5132598;27;20376;-64
2022/04/06 03:08:27;;;;;;;;;;;10.70;99.90;;;;;;5138854;27;20264;-62
2022/04/06 03:10:53;;;;;;;;;;;10.60;99.90;;;;;;5130972;27;19918;-63
2022/04/06 03:13:19;;;;;;;;;;;10.70;99.90;;;;;;5130186;27;19941;-63
2022/04/06 03:15:44;;;;;;;;;;;10.60;99.90;;;;;;5130636;27;19939;-63
2022/04/06 03:18:10;;;;;;;;;;;10.70;99.90;;;;;;5139147;27;19923;-62
2022/04/06 03:20:35;;;;;;;;;;;10.70;99.90;;;;;;5126908;27;19915;-64
2022/04/06 03:23:03;;;;;;;;;;;10.60;99.90;;;;;;5131181;27;19990;-62
2022/04/06 03:25:28;;;;;;;;;;;10.60;99.90;;;;;;5132979;27;19912;-63
2022/04/06 03:27:54;;;;;;;;;;;10.60;99.90;;;;;;5128658;27;20369;-62
2022/04/06 03:30:19;;;;;;;;;;;10.50;99.90;;;;;;5131138;27;20357;-63
2022/04/06 03:32:45;;;;;;;;;;;10.50;99.90;;;;;;5132782;27;19915;-62
2022/04/06 03:35:11;;;;;;;;;;;10.50;99.90;;;;;;5127225;27;20308;-62
2022/04/06 03:37:36;;;;;;;;;;;10.50;99.90;;;;;;5128073;27;20258;-63
2022/04/06 03:40:05;;;;;;;;;;;10.50;99.90;;;;;;5123670;27;19940;-66
2022/04/06 03:42:33;;;;;;;;;;;10.40;99.90;;;;;;5135800;27;19911;-63
2022/04/06 03:44:58;;;;;;;;;;;10.30;99.90;;;;;;5137403;27;20280;-62
2022/04/06 03:47:27;;;;;;;;;;;10.30;99.90;;;;;;5123802;27;19911;-63
2022/04/06 03:49:53;;;;;;;;;;;10.30;99.90;;;;;;5111308;27;19912;-62
2022/04/06 03:52:18;;;;;;;;;;;10.30;99.90;;;;;;5130933;27;19961;-62
2022/04/06 03:54:46;;;;;;;;;;;10.30;99.90;;;;;;5117854;27;21879;-63
2022/04/06 03:57:12;;;;;;;;;;;10.30;99.90;;;;;;5133252;27;19915;-63
2022/04/06 03:59:38;;;;;;;;;;;10.30;99.90;;;;;;5118809;27;20006;-62
2022/04/06 04:02:03;;;;;;;;;;;10.30;99.90;;;;;;5119936;27;20253;-63
2022/04/06 04:04:29;;;;;;;;;;;10.20;99.90;;;;;;5115746;28;20058;-64
2022/04/06 04:06:54;;;;;;;;;;;10.20;99.90;;;;;;5125654;27;19912;-62
2022/04/06 04:09:20;;;;;;;;;;;10.20;99.90;;;;;;5131618;27;19918;-61
2022/04/06 04:11:45;;;;;;;;;;;10.10;99.90;;;;;;5125293;27;20371;-63
2022/04/06 04:14:11;;;;;;;;;;;10.10;99.90;;;;;;5122904;27;20280;-62
2022/04/06 04:16:37;;;;;;;;;;;10.10;99.90;;;;;;5122761;27;20015;-66
2022/04/06 04:19:02;;;;;;;;;;;10.00;99.90;;;;;;5119090;27;19915;-63
2022/04/06 04:21:34;;;;;;;;;;;10.00;99.90;;;;;;5126948;27;19923;-63
2022/04/06 04:24:01;;;;;;;;;;;10.00;99.90;;;;;;5115764;27;19912;-63
2022/04/06 04:26:27;;;;;;;;;;;10.00;99.90;;;;;;5129358;27;19977;-62
2022/04/06 04:28:52;;;;;;;;;;;10.10;99.90;;;;;;5127063;27;20022;-62
2022/04/06 04:31:18;;;;;;;;;;;10.10;99.90;;;;;;5130784;27;19994;-64
2022/04/06 04:33:43;;;;;;;;;;;10.00;99.90;;;;;;5127293;27;19965;-62
2022/04/06 04:36:09;;;;;;;;;;;10.00;99.90;;;;;;5124792;27;19912;-64
2022/04/06 04:38:36;;;;;;;;;;;10.00;99.90;;;;;;5126115;27;19923;-63
2022/04/06 04:41:08;;;;;;;;;;;10.00;99.90;;;;;;5125692;27;19915;-63
2022/04/06 04:43:34;;;;;;;;;;;10.00;99.90;;;;;;5128673;27;19912;-65
2022/04/06 04:46:00;;;;;;;;;;;10.00;99.90;;;;;;5105610;28;19911;-62
2022/04/06 04:48:26;;;;;;;;;;;10.00;99.90;;;;;;5121898;27;19919;-62
2022/04/06 04:50:51;;;;;;;;;;;10.00;99.90;;;;;;5126873;27;19964;-65
2022/04/06 04:53:17;;;;;;;;;;;10.10;99.90;;;;;;5128501;27;19947;-62
2022/04/06 04:55:43;;;;;;;;;;;10.20;99.90;;;;;;5126959;27;20292;-63
2022/04/06 04:58:08;;;;;;;;;;;10.10;99.90;;;;;;5125243;28;19921;-62
2022/04/06 05:00:34;;;;;;;;;;;10.10;99.90;;;;;;5124805;28;19998;-63
2022/04/06 05:03:00;;;;;;;;;;;10.10;99.90;;;;;;5129132;27;20048;-62
2022/04/06 05:05:25;;;;;;;;;;;10.10;99.90;;;;;;5118599;27;20351;-64
2022/04/06 05:07:51;;;;;;;;;;;10.10;99.90;;;;;;5133050;27;19998;-64
2022/04/06 05:10:16;;;;;;;;;;;10.20;99.90;;;;;;5122079;28;19916;-62
2022/04/06 05:12:43;;;;;;;;;;;10.20;99.90;;;;;;5128472;27;19918;-63
2022/04/06 05:15:10;;;;;;;;;;;10.30;99.90;;;;;;5129931;27;20284;-64
2022/04/06 05:17:35;;;;;;;;;;;10.30;99.90;;;;;;5112036;28;19941;-61
2022/04/06 05:20:04;;;;;;;;;;;10.20;99.90;;;;;;5127334;28;19915;-63
2022/04/06 05:22:30;;;;;;;;;;;10.20;99.90;;;;;;5122952;27;20508;-64
2022/04/06 05:24:55;;;;;;;;;;;10.30;99.90;;;;;;5130567;27;19911;-63
2022/04/06 05:27:21;;;;;;;;;;;10.30;99.90;;;;;;5118629;27;19919;-62
2022/04/06 05:29:47;;;;;;;;;;;10.30;99.90;;;;;;5122898;27;19911;-62
2022/04/06 05:32:13;;;;;;;;;;;10.20;99.90;;;;;;5127120;28;20276;-63
2022/04/06 05:34:38;;;;;;;;;;;10.30;99.90;;;;;;5121919;27;19919;-62
2022/04/06 05:37:04;;;;;;;;;;;10.30;99.90;;;;;;5127252;27;20313;-62
2022/04/06 05:39:30;;;;;;;;;;;10.40;99.90;;;;;;5124820;27;20258;-63
2022/04/06 05:41:55;;;;;;;;;;;10.40;99.90;;;;;;5129824;27;19919;-64
2022/04/06 05:44:21;;;;;;;;;;;10.40;99.90;;;;;;5128370;27;20360;-63
2022/04/06 05:46:47;;;;;;;;;;;10.50;99.90;;;;;;5124863;27;19912;-62
2022/04/06 05:49:12;;;;;;;;;;;10.60;99.90;;;;;;5129147;27;20277;-62
2022/04/06 05:51:38;;;;;;;;;;;10.60;99.90;;;;;;5126105;27;20273;-61
2022/04/06 05:54:03;;;;;;;;;;;10.60;99.90;;;;;;5111367;27;19953;-63
2022/04/06 05:56:29;;;;;;;;;;;10.60;99.90;;;;;;5100267;27;19972;-62
2022/04/06 05:58:55;;;;;;;;;;;10.70;99.90;;;;;;5124199;27;20437;-62
2022/04/06 06:01:21;;;;;;;;;;;10.60;99.90;;;;;;5102253;27;19958;-63
2022/04/06 06:03:46;;;;;;;;;;;10.60;99.90;;;;;;5131636;27;19918;-63
2022/04/06 06:06:12;;;;;;;;;;;10.60;99.90;;;;;;5127002;27;20006;-63
2022/04/06 06:08:37;;;;;;;;;;;10.60;99.90;;;;;;5114954;27;19912;-62
2022/04/06 06:11:03;;;;;;;;;;;10.50;99.90;;;;;;5128460;27;19917;-63
2022/04/06 06:13:29;;;;;;;;;;;10.50;99.90;;;;;;5115255;27;20318;-62
2022/04/06 06:15:55;;;;;;;;;;;10.50;99.90;;;;;;5124140;27;19911;-63
2022/04/06 06:18:21;;;;;;;;;;;10.40;99.90;;;;;;5131479;27;19922;-63
2022/04/06 06:20:46;;;;;;;;;;;10.40;99.90;;;;;;5121054;27;19915;-64
2022/04/06 06:23:12;;;;;;;;;;;10.40;99.90;;;;;;5132887;27;19918;-62
2022/04/06 06:25:37;;;;;;;;;;;10.30;99.90;;;;;;5118890;27;20327;-63
2022/04/06 06:28:03;;;;;;;;;;;10.30;99.90;;;;;;5121771;27;19916;-63
2022/04/06 06:30:29;;;;;;;;;;;10.40;99.90;;;;;;5131324;27;19919;-62
2022/04/06 06:32:54;;;;;;;;;;;10.30;99.90;;;;;;5124791;27;19917;-62
2022/04/06 06:35:21;;;;;;;;;;;10.40;99.90;;;;;;5101423;28;21124;-63
2022/04/06 06:37:47;;;;;;;;;;;10.50;99.90;;;;;;5115129;28;19959;-64
2022/04/06 06:40:13;;;;;;;;;;;10.60;99.90;;;;;;5104861;28;19938;-62
2022/04/06 06:42:39;;;;;;;;;;;10.60;99.90;;;;;;5114171;28;20284;-63
2022/04/06 06:45:04;;;;;;;;;;;10.60;99.90;;;;;;5121528;27;19912;-63
2022/04/06 06:47:30;;;;;;;;;;;10.60;99.90;;;;;;5110353;28;19962;-63
2022/04/06 06:49:55;;;;;;;;;;;10.60;99.90;;;;;;5098900;28;19912;-63
2022/04/06 06:52:21;;;;;;;;;;;10.60;99.90;;;;;;5110861;28;20169;-64
2022/04/06 06:54:46;;;;;;;;;;;10.70;99.90;;;;;;5105991;28;19912;-64
2022/04/06 06:57:12;;;;;;;;;;;10.70;99.90;;;;;;5106098;28;19916;-63
2022/04/06 06:59:38;;;;;;;;;;;10.60;99.90;;;;;;5101078;28;20313;-62
2022/04/06 07:02:03;;;;;;;;;;;10.70;99.90;;;;;;5098574;28;19965;-64
2022/04/06 07:04:29;;;;;;;;;;;10.70;99.90;;;;;;5104081;28;20009;-63
2022/04/06 07:06:55;;;;;;;;;;;10.70;99.90;;;;;;5101993;28;20365;-65
2022/04/06 07:09:20;;;;;;;;;;;10.80;99.90;;;;;;5106822;28;20026;-61
2022/04/06 07:11:46;;;;;;;;;;;10.80;99.90;;;;;;5094426;28;19912;-64
2022/04/06 07:14:11;;;;;;;;;;;10.80;99.90;;;;;;5103771;28;20295;-64
2022/04/06 07:16:37;;;;;;;;;;;10.90;99.90;;;;;;5104789;28;20015;-66
2022/04/06 07:19:05;;;;;;;;;;;10.80;99.90;;;;;;5104218;28;19969;-65
2022/04/06 07:21:31;;;;;;;;;;;10.80;99.90;;;;;;5105332;28;19954;-65
2022/04/06 07:23:58;;;;;;;;;;;10.90;99.90;;;;;;5105673;28;19982;-64
2022/04/06 07:26:23;;;;;;;;;;;10.90;99.90;;;;;;5105959;28;20023;-65
2022/04/06 07:28:49;;;;;;;;;;;11.00;99.90;;;;;;5114033;28;19966;-64
2022/04/06 07:31:15;;;;;;;;;;;11.00;99.90;;;;;;5106714;28;19934;-64
2022/04/06 07:33:40;;;;;;;;;;;11.10;99.90;;;;;;5104725;27;19912;-66
2022/04/06 07:36:06;;;;;;;;;;;11.20;99.90;;;;;;5112946;27;19911;-65
2022/04/06 07:38:32;;;;;;;;;;;11.20;99.90;;;;;;5131015;27;19911;-65
2022/04/06 07:40:58;;;;;;;;;;;11.20;99.90;;;;;;5127966;27;20010;-64
2022/04/06 07:43:24;;;;;;;;;;;11.20;99.90;;;;;;5118988;27;20369;-63
2022/04/06 07:45:49;;;;;;;;;;;11.20;99.90;;;;;;5111504;27;19912;-65
2022/04/06 07:48:15;;;;;;;;;;;11.20;99.90;;;;;;5102654;27;19926;-64
2022/04/06 07:50:40;;;;;;;;;;;11.20;99.90;;;;;;5123163;27;19998;-64
2022/04/06 07:53:06;;;;;;;;;;;11.30;99.90;;;;;;5119249;27;20030;-64
2022/04/06 07:55:33;;;;;;;;;;;11.30;99.90;;;;;;5109575;27;20353;-65
2022/04/06 07:57:58;;;;;;;;;;;11.40;99.90;;;;;;5139072;27;20862;-64
2022/04/06 08:00:24;;;;;;;;;;;11.50;99.90;;;;;;5141089;27;20286;-64
2022/04/06 08:02:50;;;;;;;;;;;11.50;99.90;;;;;;5133744;27;20266;-64
2022/04/06 08:05:16;;;;;;;;;;;11.50;99.90;;;;;;5135043;27;19911;-64
2022/04/06 08:07:44;;;;;;;;;;;11.50;99.90;;;;;;5131326;27;19922;-64
2022/04/06 08:10:14;;;;;;;;;;;11.40;99.90;;;;;;5114061;27;19914;-63
2022/04/06 08:12:41;;;;;;;;;;;11.40;99.90;;;;;;5118781;27;19911;-62
2022/04/06 08:15:08;;;;;;;;;;;11.50;99.90;;;;;;5099102;28;19995;-62
2022/04/06 08:17:35;;;;;;;;;;;11.60;99.90;;;;;;5121458;27;19926;-63
2022/04/06 08:20:02;;;;;;;;;;;11.50;99.90;;;;;;5123794;27;19919;-61
2022/04/06 08:22:28;;;;;;;;;;;11.60;99.90;;;;;;5131594;27;20317;-61
2022/04/06 08:24:54;;;;;;;;;;;11.60;99.90;;;;;;5111675;27;20004;-63
2022/04/06 08:27:19;;;;;;;;;;;11.60;99.90;;;;;;5134238;27;19964;-64
2022/04/06 08:29:45;;;;;;;;;;;11.80;99.90;;;;;;5133646;27;20353;-64
2022/04/06 08:32:10;;;;;;;;;;;11.80;99.90;;;;;;5127105;27;19908;-64
2022/04/06 08:34:36;;;;;;;;;;;11.90;99.90;;;;;;5135239;27;20478;-62
2022/04/06 08:37:02;;;;;;;;;;;11.90;99.90;;;;;;5125987;27;20342;-63
2022/04/06 08:39:28;;;;;;;;;;;12.00;99.90;;;;;;5118458;28;19916;-65
2022/04/06 08:41:54;;;;;;;;;;;12.00;99.90;;;;;;5133792;27;19945;-64
2022/04/06 08:44:20;;;;;;;;;;;12.10;99.90;;;;;;5128717;27;19919;-64
2022/04/06 08:46:47;;;;;;;;;;;12.30;99.90;;;;;;5123729;27;19912;-63
2022/04/06 08:49:13;;;;;;;;;;;12.40;99.90;;;;;;5133713;27;19934;-63
2022/04/06 08:51:40;;;;;;;;;;;12.60;99.90;;;;;;5137989;27;19919;-64
2022/04/06 08:54:05;;;;;;;;;;;12.70;99.90;;;;;;5138963;28;19987;-64
2022/04/06 08:56:34;;;;;;;;;;;12.70;99.90;;;;;;5112049;28;19947;-63
2022/04/06 08:59:00;;;;;;;;;;;12.60;99.90;;;;;;5143532;27;20068;-64
2022/04/06 09:01:30;;;;;;;;;;;12.60;99.90;;;;;;5130538;28;19911;-64
2022/04/06 09:03:57;;;;;;;;;;;12.60;99.90;;;;;;5132965;28;19911;-64
2022/04/06 09:06:25;;;;;;;;;;;12.70;99.90;;;;;;5121852;28;19912;-64
2022/04/06 09:08:50;;;;;;;;;;;12.80;99.90;;;;;;5129465;28;19912;-63
2022/04/06 09:11:20;;;;;;;;;;;12.90;99.90;;;;;;5120017;28;19935;-64
2022/04/06 09:13:46;;;;;;;;;;;12.80;99.90;;;;;;5132148;27;19996;-66
2022/04/06 09:16:13;;;;;;;;;;;12.70;99.90;;;;;;5129744;27;19920;-64
2022/04/06 09:18:46;;;;;;;;;;;12.70;99.90;;;;;;5147509;27;19911;-64
2022/04/06 09:21:14;;;;;;;;;;;12.60;99.90;;;;;;5129465;27;19916;-63
2022/04/06 09:23:40;;;;;;;;;;;12.60;99.90;;;;;;5137063;27;20007;-65
2022/04/06 09:26:05;;;;;;;;;;;12.50;99.90;;;;;;5133261;27;19950;-64
2022/04/06 09:28:32;;;;;;;;;;;12.50;99.90;;;;;;5125634;27;20258;-65
2022/04/06 09:30:58;;;;;;;;;;;12.50;99.90;;;;;;5142096;27;19912;-64
2022/04/06 09:33:27;;;;;;;;;;;12.50;99.90;;;;;;5135408;27;19919;-64
2022/04/06 09:35:55;;;;;;;;;;;12.60;99.90;;;;;;5133370;27;19920;-66
2022/04/06 09:38:25;;;;;;;;;;;12.60;99.90;;;;;;5133441;27;20283;-64
2022/04/06 09:41:05;;;;;;;;;;;12.60;99.90;;;;;;5145109;27;20344;-63
2022/04/06 09:43:32;;;;;;;;;;;12.60;99.90;;;;;;5126761;27;19923;-64
2022/04/06 09:49:18;;;;;;;;;;;12.60;99.90;;;;;;5079914;28;19920;-64
2022/04/06 09:51:51;;;;;;;;;;;12.60;99.90;;;;;;5134340;27;19915;-63
2022/04/06 09:54:17;;;;;;;;;;;12.70;99.90;;;;;;5130518;27;19915;-63
2022/04/06 09:56:44;;;;;;;;;;;12.70;99.90;;;;;;5136584;27;19926;-63
2022/04/06 09:59:11;;;;;;;;;;;12.80;99.90;;;;;;5138626;27;19915;-65
2022/04/06 10:01:38;;;;;;;;;;;12.80;99.90;;;;;;5125785;27;19916;-63
2022/04/06 10:04:05;;;;;;;;;;;12.90;99.90;;;;;;5134828;27;19947;-63
2022/04/06 10:06:35;;;;;;;;;;;12.90;99.90;;;;;;5117874;27;19912;-63
2022/04/06 10:09:07;;;;;;;;;;;12.90;99.90;;;;;;5136198;27;19919;-64
2022/04/06 10:11:33;;;;;;;;;;;13.00;99.90;;;;;;5134098;27;19916;-62
2022/04/06 10:13:59;;;;;;;;;;;13.00;99.90;;;;;;5138748;27;19962;-62
2022/04/06 10:16:25;;;;;;;;;;;13.00;99.90;;;;;;5134770;27;19941;-62
2022/04/06 10:18:52;;;;;;;;;;;13.10;99.90;;;;;;5130218;27;19926;-63
2022/04/06 10:21:35;;;;;;;;;;;13.20;99.90;;;;;;5133688;27;19912;-63
2022/04/06 10:24:20;;;;;;;;;;;13.20;99.90;;;;;;5112628;27;19915;-64
2022/04/06 10:26:46;;;;;;;;;;;13.20;99.90;;;;;;5136073;27;19915;-62
2022/04/06 10:29:11;;;;;;;;;;;13.20;99.90;;;;;;5142800;27;19911;-63
2022/04/06 10:31:37;;;;;;;;;;;13.20;99.90;;;;;;5138893;27;19911;-63
2022/04/06 10:34:19;;;;;;;;;;;13.30;99.90;;;;;;5151137;27;19911;-61
2022/04/06 10:37:01;;;;;;;;;;;12.90;99.90;;;;;;5137953;27;20234;-62
2022/04/06 10:39:27;;;;;;;;;;;12.90;99.90;;;;;;5138965;27;19998;-62
2022/04/06 10:42:13;;;;;;;;;;;12.90;99.90;;;;;;5122138;27;20403;-63
2022/04/06 10:44:39;;;;;;;;;;;13.00;99.90;;;;;;5129416;27;19916;-63
2022/04/06 10:47:08;;;;;;;;;;;12.90;99.90;;;;;;5152245;27;19899;-64
2022/04/06 10:49:35;;;;;;;;;;;13.10;99.90;;;;;;5150253;27;19925;-63
2022/04/06 10:52:19;;;;;;;;;;;13.30;99.90;;;;;;5154245;27;19992;-63
2022/04/06 10:54:45;;;;;;;;;;;13.40;99.90;;;;;;5145192;27;19912;-63
2022/04/06 10:57:11;;;;;;;;;;;13.60;99.90;;;;;;5149852;27;19916;-63
2022/04/06 10:59:37;;;;;;;;;;;13.70;99.90;;;;;;5126314;27;19910;-63
2022/04/06 11:02:19;;;;;;;;;;;13.80;99.90;;;;;;5150492;27;19958;-64
2022/04/06 11:04:45;;;;;;;;;;;13.80;99.90;;;;;;5154911;27;19912;-64
2022/04/06 11:07:13;;;;;;;;;;;13.70;99.90;;;;;;5143365;27;19899;-63
2022/04/06 11:12:24;;;;;;;;;;;13.70;99.90;;;;;;5153605;27;19914;-63
2022/04/06 11:14:52;;;;;;;;;;;13.60;99.90;;;;;;5138759;27;19933;-62
2022/04/06 11:17:44;;;;;;;;;;;13.60;99.90;;;;;;5141365;27;19908;-63
2022/04/06 11:20:17;;;;;;;;;;;13.80;99.90;;;;;;5150519;27;19922;-64
2022/04/06 11:22:44;;;;;;;;;;;13.80;99.90;;;;;;5126820;27;19941;-65
2022/04/06 11:25:11;;;;;;;;;;;13.80;99.90;;;;;;5120247;28;19904;-64
2022/04/06 11:27:37;;;;;;;;;;;13.70;99.90;;;;;;5148450;27;19916;-64
2022/04/06 11:30:04;;;;;;;;;;;13.80;99.90;;;;;;5152286;27;20015;-63
2022/04/06 11:32:30;;;;;;;;;;;14.10;99.90;;;;;;5139943;27;19938;-63
2022/04/06 11:35:08;;;;;;;;;;;14.00;99.90;;;;;;5151592;27;19908;-63
2022/04/06 11:37:41;;;;;;;;;;;13.80;99.90;;;;;;5150840;27;19924;-64
2022/04/06 11:40:09;;;;;;;;;;;13.70;99.90;;;;;;5154287;27;20477;-62
2022/04/06 11:42:35;;;;;;;;;;;13.80;99.90;;;;;;5153687;27;19929;-62
2022/04/06 11:45:00;;;;;;;;;;;13.90;99.90;;;;;;5145254;27;19916;-67
2022/04/06 11:47:27;;;;;;;;;;;14.20;99.90;;;;;;5144900;27;19900;-62
2022/04/06 11:49:52;;;;;;;;;;;14.50;99.90;;;;;;5154054;27;19919;-63
2022/04/06 11:52:18;;;;;;;;;;;14.20;99.90;;;;;;5144353;27;19969;-64
2022/04/06 11:55:10;;;;;;;;;;;14.10;99.90;;;;;;5159101;27;19921;-64
2022/04/06 11:57:37;;;;;;;;;;;14.30;99.90;;;;;;5146618;27;20003;-63
2022/04/06 12:00:06;;;;;;;;;;;14.40;99.90;;;;;;5143897;27;19920;-63
2022/04/06 12:02:52;;;;;;;;;;;14.60;99.90;;;;;;5128263;28;19963;-65
2022/04/06 12:05:18;;;;;;;;;;;14.70;99.90;;;;;;5130401;27;19958;-62
2022/04/06 12:07:47;;;;;;;;;;;14.70;99.90;;;;;;5151787;27;19912;-63
2022/04/06 12:10:12;;;;;;;;;;;14.90;99.90;;;;;;5152742;27;19919;-63
2022/04/06 12:12:38;;;;;;;;;;;14.90;99.90;;;;;;5149618;27;20166;-63
2022/04/06 12:15:07;;;;;;;;;;;14.80;99.90;;;;;;5147391;27;19904;-63
2022/04/06 12:17:33;;;;;;;;;;;14.40;99.90;;;;;;5142568;27;19983;-63
2022/04/06 12:19:59;;;;;;;;;;;14.00;99.90;;;;;;5149491;27;19903;-64
2022/04/06 12:22:26;;;;;;;;;;;13.60;99.90;;;;;;5134627;27;19915;-63
2022/04/06 12:24:52;;;;;;;;;;;12.70;99.90;;;;;;5145488;27;19960;-64
2022/04/06 12:27:30;;;;;;;;;;;12.00;99.90;;;;;;5127727;27;19933;-62
2022/04/06 12:30:06;;;;;;;;;;;10.80;99.90;;;;;;5104597;27;19922;-63
2022/04/06 12:32:42;;;;;;;;;;;10.30;99.90;;;;;;5108990;27;20357;-62
2022/04/06 12:35:21;;;;;;;;;;;10.10;99.90;;;;;;5127310;27;19961;-63
2022/04/06 12:37:47;;;;;;;;;;;10.00;99.90;;;;;;5126187;27;19927;-63
2022/04/06 12:40:23;;;;;;;;;;;10.20;99.90;;;;;;5123579;27;20002;-62
2022/04/06 12:42:49;;;;;;;;;;;10.30;99.90;;;;;;5108497;28;19955;-63
2022/04/06 12:45:14;;;;;;;;;;;10.30;99.90;;;;;;5131614;27;20300;-62
2022/04/06 12:47:41;;;;;;;;;;;10.00;99.90;;;;;;5125520;27;19927;-63
2022/04/06 12:50:10;;;;;;;;;;;9.80;99.90;;;;;;5115242;28;19915;-62
2022/04/06 12:52:37;;;;;;;;;;;9.80;99.90;;;;;;5124379;27;19911;-63
2022/04/06 12:55:07;;;;;;;;;;;9.90;99.90;;;;;;5120640;28;19912;-62
2022/04/06 12:57:37;;;;;;;;;;;9.90;99.90;;;;;;5117990;27;20006;-63
2022/04/06 13:00:07;;;;;;;;;;;9.90;99.90;;;;;;5102402;28;19984;-62
2022/04/06 13:02:35;;;;;;;;;;;10.10;99.90;;;;;;5138222;27;19911;-62
2022/04/06 13:05:02;;;;;;;;;;;10.40;99.90;;;;;;5114491;28;19930;-63
2022/04/06 13:07:29;;;;;;;;;;;10.60;99.90;;;;;;5123350;28;19918;-62
2022/04/06 13:09:58;;;;;;;;;;;10.80;99.90;;;;;;5113852;28;19918;-62
2022/04/06 13:12:25;;;;;;;;;;;10.80;99.90;;;;;;5123890;28;19912;-62
2022/04/06 13:14:51;;;;;;;;;;;10.70;99.90;;;;;;5127944;28;19912;-63
2022/04/06 13:17:18;;;;;;;;;;;10.80;99.90;;;;;;5106424;28;19922;-62
2022/04/06 13:19:44;;;;;;;;;;;10.80;99.90;;;;;;5120839;28;19931;-63
2022/04/06 13:22:09;;;;;;;;;;;11.10;99.90;;;;;;5122859;28;19911;-62
2022/04/06 13:24:35;;;;;;;;;;;11.20;99.90;;;;;;5127833;28;20378;-63
2022/04/06 13:27:02;;;;;;;;;;;11.30;99.90;;;;;;5120400;28;19912;-63
2022/04/06 13:29:27;;;;;;;;;;;11.50;99.90;;;;;;5109359;27;20300;-64
2022/04/06 13:31:53;;;;;;;;;;;11.80;99.90;;;;;;5123591;28;19912;-63
2022/04/06 13:34:20;;;;;;;;;;;12.00;99.90;;;;;;5123944;27;19919;-63
2022/04/06 13:36:46;;;;;;;;;;;11.90;99.90;;;;;;5120457;28;19911;-63
2022/04/06 13:39:12;;;;;;;;;;;12.00;99.90;;;;;;5115738;28;19918;-63
2022/04/06 13:41:38;;;;;;;;;;;12.10;99.90;;;;;;5117391;27;19916;-63
2022/04/06 13:44:04;;;;;;;;;;;12.20;99.90;;;;;;5125759;27;19965;-63
2022/04/06 13:46:29;;;;;;;;;;;12.00;99.90;;;;;;5124816;27;19918;-62
2022/04/06 13:48:57;;;;;;;;;;;12.00;99.90;;;;;;5131288;28;19949;-63
2022/04/06 13:51:23;;;;;;;;;;;12.20;99.90;;;;;;5107220;28;20438;-64
2022/04/06 13:53:50;;;;;;;;;;;12.60;99.90;;;;;;5127833;28;19911;-64
2022/04/06 13:56:16;;;;;;;;;;;12.70;99.90;;;;;;5134692;27;19912;-63
2022/04/06 13:58:41;;;;;;;;;;;12.90;99.90;;;;;;5124396;28;20010;-62
2022/04/06 14:01:07;;;;;;;;;;;13.40;99.90;;;;;;5108870;27;19921;-63
2022/04/06 14:03:33;;;;;;;;;;;13.50;99.90;;;;;;5121432;27;19915;-63
2022/04/06 14:05:59;;;;;;;;;;;13.60;99.90;;;;;;5124382;27;19912;-63
2022/04/06 14:08:30;;;;;;;;;;;13.70;99.90;;;;;;5117602;27;19911;-63
2022/04/06 14:10:56;;;;;;;;;;;13.60;99.90;;;;;;5127801;27;20288;-62
2022/04/06 14:13:21;;;;;;;;;;;13.60;99.90;;;;;;5105157;28;19915;-62
2022/04/06 14:15:50;;;;;;;;;;;13.80;99.90;;;;;;5112358;27;19911;-63
2022/04/06 14:18:18;;;;;;;;;;;14.00;99.90;;;;;;5132658;27;19922;-62
2022/04/06 14:20:44;;;;;;;;;;;14.00;99.90;;;;;;5127594;27;19926;-63
2022/04/06 14:23:10;;;;;;;;;;;13.90;99.90;;;;;;5124954;27;19984;-63
2022/04/06 14:25:36;;;;;;;;;;;13.90;99.90;;;;;;5127001;27;19915;-63